Pagina principale
METAR-TAF:

METAR-TAF

Aeroporti :

Aeroporto di Irkutsk

Irkutsk, Russia

latitudine: 52-16N, longitudine: 104-19E, altezza: 513 m

Osservazione

Il bollettino è stato emesso 28 minuti fa, alle 06:30 UTC
Vento 6 kt da sud-est
Temperature 7°C
Umidità 17%
Pressione 1013 hPa
Visibilità 10 km o più
nessuna nube inferiore a 1500 m e nessun cumulonembo

METAR: UIII 200630Z 13003MPS CAVOK 07/M16 Q1013 R12/CLRD60 NOSIG RMK QFE718/0957

Ora: 14:58 (06:58 UTC)

Previsione

Il bollettino è stato emesso 1 ora e 58 minuti fa, alle 05:00 UTC
Previsione valida dal 20 alle 06 UTC al 21 alle 06 UTC
Vento 10 kt da sud-est
Visibilità 10 km o più
nessuna nube inferiore a 1500 m e nessun cumulonembo

TAF: UIII 200500Z 2006/2106 14005MPS CAVOK

Osservazioni e previsioni meteorologiche di più di 4000 aeroporti (messaggi METAR e TAF).

Le stazioni disponibili sono rappresentate dai dischi gialli e rossi sulla carta.

Puntare il mouse per vedere il nome della stazione.

Clicca sopra per visualizzare le osservazioni e previsioni meteorologiche.

Per cambiare la mappa : fare clic sui pulsanti verdi con una croce nera per ingrandire, il pulsante verde con un trattino per diminuire, o sulla freccia verde per le mappe adiacenti.


METAR-TAF: